sensor_id;sensor_type;location;lat;lon;timestamp;temperature;humidity
14099;DHT22;7126;48.458;7.930;2024-03-25T00:01:13;6.40;99.90
14099;DHT22;7126;48.458;7.930;2024-03-25T00:03:38;6.30;99.90
14099;DHT22;7126;48.458;7.930;2024-03-25T00:06:04;6.30;99.90
14099;DHT22;7126;48.458;7.930;2024-03-25T00:08:30;6.40;99.90
14099;DHT22;7126;48.458;7.930;2024-03-25T00:10:55;6.40;99.90
14099;DHT22;7126;48.458;7.930;2024-03-25T00:13:21;6.40;99.90
14099;DHT22;7126;48.458;7.930;2024-03-25T00:15:47;6.40;99.90
14099;DHT22;7126;48.458;7.930;2024-03-25T00:18:12;6.40;99.90
14099;DHT22;7126;48.458;7.930;2024-03-25T00:20:38;6.40;99.90
14099;DHT22;7126;48.458;7.930;2024-03-25T00:23:04;6.40;99.90
14099;DHT22;7126;48.458;7.930;2024-03-25T00:25:29;6.30;99.90
14099;DHT22;7126;48.458;7.930;2024-03-25T00:27:55;6.40;99.90
14099;DHT22;7126;48.458;7.930;2024-03-25T00:30:22;6.40;99.90
14099;DHT22;7126;48.458;7.930;2024-03-25T00:32:47;6.40;99.90
14099;DHT22;7126;48.458;7.930;2024-03-25T00:35:13;6.50;99.90
14099;DHT22;7126;48.458;7.930;2024-03-25T00:37:38;6.50;99.90
14099;DHT22;7126;48.458;7.930;2024-03-25T00:40:04;6.50;99.90
14099;DHT22;7126;48.458;7.930;2024-03-25T00:42:32;6.50;99.90
14099;DHT22;7126;48.458;7.930;2024-03-25T00:44:58;6.50;99.90
14099;DHT22;7126;48.458;7.930;2024-03-25T00:47:23;6.50;99.90
14099;DHT22;7126;48.458;7.930;2024-03-25T00:49:49;6.50;99.90
14099;DHT22;7126;48.458;7.930;2024-03-25T00:52:14;6.50;99.90
14099;DHT22;7126;48.458;7.930;2024-03-25T00:54:40;6.50;99.90
14099;DHT22;7126;48.458;7.930;2024-03-25T00:57:05;6.50;99.90
14099;DHT22;7126;48.458;7.930;2024-03-25T00:59:31;6.50;99.90
14099;DHT22;7126;48.458;7.930;2024-03-25T01:01:56;6.50;99.90
14099;DHT22;7126;48.458;7.930;2024-03-25T01:04:22;6.40;99.90
14099;DHT22;7126;48.458;7.930;2024-03-25T01:06:48;6.40;99.90
14099;DHT22;7126;48.458;7.930;2024-03-25T01:09:14;6.30;99.90
14099;DHT22;7126;48.458;7.930;2024-03-25T01:11:39;6.30;99.90
14099;DHT22;7126;48.458;7.930;2024-03-25T01:14:05;6.20;99.90
14099;DHT22;7126;48.458;7.930;2024-03-25T01:16:31;6.20;99.90
14099;DHT22;7126;48.458;7.930;2024-03-25T01:18:57;6.10;99.90
14099;DHT22;7126;48.458;7.930;2024-03-25T01:21:24;6.10;99.90
14099;DHT22;7126;48.458;7.930;2024-03-25T01:23:50;6.10;99.90
14099;DHT22;7126;48.458;7.930;2024-03-25T01:26:15;6.10;99.90
14099;DHT22;7126;48.458;7.930;2024-03-25T01:28:42;6.10;99.90
14099;DHT22;7126;48.458;7.930;2024-03-25T01:31:07;6.20;99.90
14099;DHT22;7126;48.458;7.930;2024-03-25T01:33:33;6.20;99.90
14099;DHT22;7126;48.458;7.930;2024-03-25T01:35:59;6.20;99.90
14099;DHT22;7126;48.458;7.930;2024-03-25T01:38:25;6.20;99.90
14099;DHT22;7126;48.458;7.930;2024-03-25T01:40:50;6.20;99.90
14099;DHT22;7126;48.458;7.930;2024-03-25T01:43:16;6.20;99.90
14099;DHT22;7126;48.458;7.930;2024-03-25T01:45:42;6.10;99.90
14099;DHT22;7126;48.458;7.930;2024-03-25T01:48:08;6.10;99.90
14099;DHT22;7126;48.458;7.930;2024-03-25T01:50:39;6.00;99.90
14099;DHT22;7126;48.458;7.930;2024-03-25T01:53:06;6.00;99.90
14099;DHT22;7126;48.458;7.930;2024-03-25T01:55:34;6.00;99.90
14099;DHT22;7126;48.458;7.930;2024-03-25T01:58:03;5.90;99.90
14099;DHT22;7126;48.458;7.930;2024-03-25T02:00:29;5.90;99.90
14099;DHT22;7126;48.458;7.930;2024-03-25T02:02:55;5.90;99.90
14099;DHT22;7126;48.458;7.930;2024-03-25T02:05:22;5.90;99.90
14099;DHT22;7126;48.458;7.930;2024-03-25T02:07:48;5.90;99.90
14099;DHT22;7126;48.458;7.930;2024-03-25T02:10:15;5.90;99.90
14099;DHT22;7126;48.458;7.930;2024-03-25T02:12:41;5.90;99.90
14099;DHT22;7126;48.458;7.930;2024-03-25T02:15:08;5.80;99.90
14099;DHT22;7126;48.458;7.930;2024-03-25T02:17:34;5.90;99.90
14099;DHT22;7126;48.458;7.930;2024-03-25T02:20:00;5.80;99.90
14099;DHT22;7126;48.458;7.930;2024-03-25T02:22:26;5.80;99.90
14099;DHT22;7126;48.458;7.930;2024-03-25T02:24:53;5.80;99.90
14099;DHT22;7126;48.458;7.930;2024-03-25T02:27:21;5.80;99.90
14099;DHT22;7126;48.458;7.930;2024-03-25T02:29:47;5.70;99.90
14099;DHT22;7126;48.458;7.930;2024-03-25T02:32:12;5.70;99.90
14099;DHT22;7126;48.458;7.930;2024-03-25T02:34:40;5.70;99.90
14099;DHT22;7126;48.458;7.930;2024-03-25T02:37:07;5.60;99.90
14099;DHT22;7126;48.458;7.930;2024-03-25T02:39:33;5.60;99.90
14099;DHT22;7126;48.458;7.930;2024-03-25T02:41:59;5.60;99.90
14099;DHT22;7126;48.458;7.930;2024-03-25T02:44:25;5.60;99.90
14099;DHT22;7126;48.458;7.930;2024-03-25T02:46:51;5.70;99.90
14099;DHT22;7126;48.458;7.930;2024-03-25T02:49:17;5.60;99.90
14099;DHT22;7126;48.458;7.930;2024-03-25T02:51:43;5.60;99.90
14099;DHT22;7126;48.458;7.930;2024-03-25T02:54:08;5.60;99.90
14099;DHT22;7126;48.458;7.930;2024-03-25T02:56:37;5.60;99.90
14099;DHT22;7126;48.458;7.930;2024-03-25T02:59:02;5.50;99.90
14099;DHT22;7126;48.458;7.930;2024-03-25T03:01:28;5.60;99.90
14099;DHT22;7126;48.458;7.930;2024-03-25T03:03:53;5.60;99.90
14099;DHT22;7126;48.458;7.930;2024-03-25T03:06:19;5.60;99.90
14099;DHT22;7126;48.458;7.930;2024-03-25T03:08:45;5.70;99.90
14099;DHT22;7126;48.458;7.930;2024-03-25T03:11:10;5.60;99.90
14099;DHT22;7126;48.458;7.930;2024-03-25T03:13:36;5.60;99.90
14099;DHT22;7126;48.458;7.930;2024-03-25T03:16:01;5.60;99.90
14099;DHT22;7126;48.458;7.930;2024-03-25T03:18:27;5.60;99.90
14099;DHT22;7126;48.458;7.930;2024-03-25T03:20:53;5.50;99.90
14099;DHT22;7126;48.458;7.930;2024-03-25T03:23:21;5.50;99.90
14099;DHT22;7126;48.458;7.930;2024-03-25T03:25:47;5.50;99.90
14099;DHT22;7126;48.458;7.930;2024-03-25T03:28:12;5.50;99.90
14099;DHT22;7126;48.458;7.930;2024-03-25T03:30:38;5.50;99.90
14099;DHT22;7126;48.458;7.930;2024-03-25T03:33:04;5.50;99.90
14099;DHT22;7126;48.458;7.930;2024-03-25T03:35:30;5.50;99.90
14099;DHT22;7126;48.458;7.930;2024-03-25T03:37:57;5.50;99.90
14099;DHT22;7126;48.458;7.930;2024-03-25T03:40:23;5.50;99.90
14099;DHT22;7126;48.458;7.930;2024-03-25T03:42:48;5.50;99.90
14099;DHT22;7126;48.458;7.930;2024-03-25T03:45:14;5.60;99.90
14099;DHT22;7126;48.458;7.930;2024-03-25T03:47:39;5.60;99.90
14099;DHT22;7126;48.458;7.930;2024-03-25T03:50:06;5.70;99.90
14099;DHT22;7126;48.458;7.930;2024-03-25T03:52:33;5.70;99.90
14099;DHT22;7126;48.458;7.930;2024-03-25T03:55:00;5.60;99.90
14099;DHT22;7126;48.458;7.930;2024-03-25T03:57:26;5.60;99.90
14099;DHT22;7126;48.458;7.930;2024-03-25T03:59:51;5.70;99.90
14099;DHT22;7126;48.458;7.930;2024-03-25T04:02:17;5.80;99.90
14099;DHT22;7126;48.458;7.930;2024-03-25T04:04:43;5.80;99.90
14099;DHT22;7126;48.458;7.930;2024-03-25T04:07:08;5.80;99.90
14099;DHT22;7126;48.458;7.930;2024-03-25T04:09:34;5.80;99.90
14099;DHT22;7126;48.458;7.930;2024-03-25T04:11:59;5.80;99.90
14099;DHT22;7126;48.458;7.930;2024-03-25T04:14:26;5.80;99.90
14099;DHT22;7126;48.458;7.930;2024-03-25T04:16:51;5.70;99.90
14099;DHT22;7126;48.458;7.930;2024-03-25T04:19:19;5.70;99.90
14099;DHT22;7126;48.458;7.930;2024-03-25T04:21:44;5.70;99.90
14099;DHT22;7126;48.458;7.930;2024-03-25T04:24:10;5.70;99.90
14099;DHT22;7126;48.458;7.930;2024-03-25T04:26:35;5.80;99.90
14099;DHT22;7126;48.458;7.930;2024-03-25T04:29:01;5.80;99.90
14099;DHT22;7126;48.458;7.930;2024-03-25T04:31:26;5.70;99.90
14099;DHT22;7126;48.458;7.930;2024-03-25T04:33:52;5.70;99.90
14099;DHT22;7126;48.458;7.930;2024-03-25T04:36:17;5.70;99.90
14099;DHT22;7126;48.458;7.930;2024-03-25T04:38:43;5.60;99.90
14099;DHT22;7126;48.458;7.930;2024-03-25T04:41:08;5.60;99.90
14099;DHT22;7126;48.458;7.930;2024-03-25T04:43:34;5.60;99.90
14099;DHT22;7126;48.458;7.930;2024-03-25T04:46:02;5.60;99.90
14099;DHT22;7126;48.458;7.930;2024-03-25T04:48:28;5.60;99.90
14099;DHT22;7126;48.458;7.930;2024-03-25T04:50:55;5.50;99.90
14099;DHT22;7126;48.458;7.930;2024-03-25T04:53:20;5.50;99.90
14099;DHT22;7126;48.458;7.930;2024-03-25T04:55:46;5.50;99.90
14099;DHT22;7126;48.458;7.930;2024-03-25T04:58:11;5.50;99.90
14099;DHT22;7126;48.458;7.930;2024-03-25T05:00:37;5.50;99.90
14099;DHT22;7126;48.458;7.930;2024-03-25T05:03:02;5.50;99.90
14099;DHT22;7126;48.458;7.930;2024-03-25T05:05:29;5.50;99.90
14099;DHT22;7126;48.458;7.930;2024-03-25T05:07:54;5.40;99.90
14099;DHT22;7126;48.458;7.930;2024-03-25T05:10:20;5.40;99.90
14099;DHT22;7126;48.458;7.930;2024-03-25T05:12:45;5.30;99.90
14099;DHT22;7126;48.458;7.930;2024-03-25T05:15:12;5.30;99.90
14099;DHT22;7126;48.458;7.930;2024-03-25T05:17:38;5.30;99.90
14099;DHT22;7126;48.458;7.930;2024-03-25T05:20:04;5.30;99.90
14099;DHT22;7126;48.458;7.930;2024-03-25T05:22:30;5.30;99.90
14099;DHT22;7126;48.458;7.930;2024-03-25T05:24:55;5.30;99.90
14099;DHT22;7126;48.458;7.930;2024-03-25T05:27:21;5.20;99.90
14099;DHT22;7126;48.458;7.930;2024-03-25T05:29:46;5.10;99.90
14099;DHT22;7126;48.458;7.930;2024-03-25T05:32:14;5.00;99.90
14099;DHT22;7126;48.458;7.930;2024-03-25T05:34:40;5.00;99.90
14099;DHT22;7126;48.458;7.930;2024-03-25T05:37:06;5.10;99.90
14099;DHT22;7126;48.458;7.930;2024-03-25T05:39:31;5.00;99.90
14099;DHT22;7126;48.458;7.930;2024-03-25T05:41:57;5.00;99.90
14099;DHT22;7126;48.458;7.930;2024-03-25T05:44:22;4.90;99.90
14099;DHT22;7126;48.458;7.930;2024-03-25T05:46:47;4.80;99.90
14099;DHT22;7126;48.458;7.930;2024-03-25T05:49:14;4.80;99.90
14099;DHT22;7126;48.458;7.930;2024-03-25T05:51:39;4.70;99.90
14099;DHT22;7126;48.458;7.930;2024-03-25T05:54:05;4.70;99.90
14099;DHT22;7126;48.458;7.930;2024-03-25T05:56:30;4.70;99.90
14099;DHT22;7126;48.458;7.930;2024-03-25T05:58:57;4.70;99.90
14099;DHT22;7126;48.458;7.930;2024-03-25T06:01:23;4.70;99.90
14099;DHT22;7126;48.458;7.930;2024-03-25T06:03:48;4.70;99.90
14099;DHT22;7126;48.458;7.930;2024-03-25T06:06:14;4.70;99.90
14099;DHT22;7126;48.458;7.930;2024-03-25T06:08:39;4.70;99.90
14099;DHT22;7126;48.458;7.930;2024-03-25T06:11:05;4.80;99.90
14099;DHT22;7126;48.458;7.930;2024-03-25T06:13:30;4.80;99.90
14099;DHT22;7126;48.458;7.930;2024-03-25T06:15:56;4.90;99.90
14099;DHT22;7126;48.458;7.930;2024-03-25T06:18:21;5.00;99.90
14099;DHT22;7126;48.458;7.930;2024-03-25T06:20:47;5.00;99.90
14099;DHT22;7126;48.458;7.930;2024-03-25T06:23:26;5.10;99.90
14099;DHT22;7126;48.458;7.930;2024-03-25T06:25:53;5.10;99.90
14099;DHT22;7126;48.458;7.930;2024-03-25T06:28:19;5.10;99.90
14099;DHT22;7126;48.458;7.930;2024-03-25T06:30:46;5.10;99.90
14099;DHT22;7126;48.458;7.930;2024-03-25T06:33:30;5.20;99.90
14099;DHT22;7126;48.458;7.930;2024-03-25T06:36:15;5.30;99.90
14099;DHT22;7126;48.458;7.930;2024-03-25T06:38:41;5.30;99.90
14099;DHT22;7126;48.458;7.930;2024-03-25T06:41:06;5.30;99.90
14099;DHT22;7126;48.458;7.930;2024-03-25T06:43:32;5.30;99.90
14099;DHT22;7126;48.458;7.930;2024-03-25T06:45:57;5.30;99.90
14099;DHT22;7126;48.458;7.930;2024-03-25T06:48:23;5.20;99.90
14099;DHT22;7126;48.458;7.930;2024-03-25T06:50:56;5.20;99.90
14099;DHT22;7126;48.458;7.930;2024-03-25T06:53:21;5.00;99.90
14099;DHT22;7126;48.458;7.930;2024-03-25T06:56:00;5.00;99.90
14099;DHT22;7126;48.458;7.930;2024-03-25T06:58:29;4.90;99.90
14099;DHT22;7126;48.458;7.930;2024-03-25T07:00:56;5.00;99.90
14099;DHT22;7126;48.458;7.930;2024-03-25T07:03:23;4.90;99.90
14099;DHT22;7126;48.458;7.930;2024-03-25T07:05:50;5.00;99.90
14099;DHT22;7126;48.458;7.930;2024-03-25T07:08:17;5.10;99.90
14099;DHT22;7126;48.458;7.930;2024-03-25T07:10:45;5.10;99.90
14099;DHT22;7126;48.458;7.930;2024-03-25T07:13:11;5.10;99.90
14099;DHT22;7126;48.458;7.930;2024-03-25T07:15:36;5.10;99.90
14099;DHT22;7126;48.458;7.930;2024-03-25T07:18:03;5.20;99.90
14099;DHT22;7126;48.458;7.930;2024-03-25T07:20:29;5.30;99.90
14099;DHT22;7126;48.458;7.930;2024-03-25T07:22:54;5.40;99.90
14099;DHT22;7126;48.458;7.930;2024-03-25T07:25:23;5.50;99.90
14099;DHT22;7126;48.458;7.930;2024-03-25T07:27:49;5.60;99.90
14099;DHT22;7126;48.458;7.930;2024-03-25T07:30:15;5.60;99.90
14099;DHT22;7126;48.458;7.930;2024-03-25T07:32:41;5.80;99.90
14099;DHT22;7126;48.458;7.930;2024-03-25T07:35:07;5.90;99.90
14099;DHT22;7126;48.458;7.930;2024-03-25T07:37:34;6.00;99.90
14099;DHT22;7126;48.458;7.930;2024-03-25T07:40:00;6.10;99.90
14099;DHT22;7126;48.458;7.930;2024-03-25T07:42:25;6.20;99.90
14099;DHT22;7126;48.458;7.930;2024-03-25T07:44:51;6.30;99.90
14099;DHT22;7126;48.458;7.930;2024-03-25T07:47:16;6.40;99.90
14099;DHT22;7126;48.458;7.930;2024-03-25T07:49:42;6.50;99.90
14099;DHT22;7126;48.458;7.930;2024-03-25T07:52:07;6.70;99.90
14099;DHT22;7126;48.458;7.930;2024-03-25T07:54:33;6.70;99.90
14099;DHT22;7126;48.458;7.930;2024-03-25T07:56:58;6.70;99.90
14099;DHT22;7126;48.458;7.930;2024-03-25T07:59:24;6.90;99.90
14099;DHT22;7126;48.458;7.930;2024-03-25T08:01:50;7.00;99.90
14099;DHT22;7126;48.458;7.930;2024-03-25T08:04:15;7.10;99.90
14099;DHT22;7126;48.458;7.930;2024-03-25T08:06:41;7.10;99.90
14099;DHT22;7126;48.458;7.930;2024-03-25T08:09:06;7.20;99.90
14099;DHT22;7126;48.458;7.930;2024-03-25T08:11:35;7.30;99.90
14099;DHT22;7126;48.458;7.930;2024-03-25T08:14:00;7.50;99.90
14099;DHT22;7126;48.458;7.930;2024-03-25T08:16:26;7.60;99.90
14099;DHT22;7126;48.458;7.930;2024-03-25T08:18:52;7.70;99.90
14099;DHT22;7126;48.458;7.930;2024-03-25T08:21:17;7.80;99.90
14099;DHT22;7126;48.458;7.930;2024-03-25T08:23:46;7.80;99.90
14099;DHT22;7126;48.458;7.930;2024-03-25T08:26:11;7.90;99.90
14099;DHT22;7126;48.458;7.930;2024-03-25T08:28:37;8.10;99.90
14099;DHT22;7126;48.458;7.930;2024-03-25T08:31:03;8.20;99.90
14099;DHT22;7126;48.458;7.930;2024-03-25T08:33:29;8.30;99.90
14099;DHT22;7126;48.458;7.930;2024-03-25T08:35:54;8.40;99.90
14099;DHT22;7126;48.458;7.930;2024-03-25T08:38:20;8.60;99.90
14099;DHT22;7126;48.458;7.930;2024-03-25T08:40:46;8.60;99.90
14099;DHT22;7126;48.458;7.930;2024-03-25T08:43:12;8.70;99.90
14099;DHT22;7126;48.458;7.930;2024-03-25T08:45:37;8.80;99.90
14099;DHT22;7126;48.458;7.930;2024-03-25T08:48:03;9.00;99.90
14099;DHT22;7126;48.458;7.930;2024-03-25T08:50:28;9.10;99.90
14099;DHT22;7126;48.458;7.930;2024-03-25T08:52:54;9.20;99.90
14099;DHT22;7126;48.458;7.930;2024-03-25T08:55:19;9.40;99.90
14099;DHT22;7126;48.458;7.930;2024-03-25T08:57:45;9.50;99.90
14099;DHT22;7126;48.458;7.930;2024-03-25T09:00:11;9.60;99.90
14099;DHT22;7126;48.458;7.930;2024-03-25T09:02:37;9.70;99.90
14099;DHT22;7126;48.458;7.930;2024-03-25T09:05:03;9.70;99.90
14099;DHT22;7126;48.458;7.930;2024-03-25T09:07:32;9.80;99.90
14099;DHT22;7126;48.458;7.930;2024-03-25T09:09:58;9.90;99.90
14099;DHT22;7126;48.458;7.930;2024-03-25T09:12:42;10.00;99.90
14099;DHT22;7126;48.458;7.930;2024-03-25T09:15:07;10.10;99.90
14099;DHT22;7126;48.458;7.930;2024-03-25T09:17:35;10.20;99.90
14099;DHT22;7126;48.458;7.930;2024-03-25T09:20:01;10.30;99.90
14099;DHT22;7126;48.458;7.930;2024-03-25T09:22:26;10.50;99.90
14099;DHT22;7126;48.458;7.930;2024-03-25T09:24:52;10.50;99.90
14099;DHT22;7126;48.458;7.930;2024-03-25T09:27:18;10.60;99.90
14099;DHT22;7126;48.458;7.930;2024-03-25T09:29:43;10.70;99.90
14099;DHT22;7126;48.458;7.930;2024-03-25T09:32:09;10.90;99.90
14099;DHT22;7126;48.458;7.930;2024-03-25T09:34:34;11.00;99.90
14099;DHT22;7126;48.458;7.930;2024-03-25T09:37:00;11.10;99.90
14099;DHT22;7126;48.458;7.930;2024-03-25T09:39:25;11.20;99.90
14099;DHT22;7126;48.458;7.930;2024-03-25T09:41:55;11.40;99.90
14099;DHT22;7126;48.458;7.930;2024-03-25T09:44:22;11.50;99.90
14099;DHT22;7126;48.458;7.930;2024-03-25T09:46:50;11.60;99.90
14099;DHT22;7126;48.458;7.930;2024-03-25T09:49:16;11.70;99.90
14099;DHT22;7126;48.458;7.930;2024-03-25T09:51:42;11.80;99.90
14099;DHT22;7126;48.458;7.930;2024-03-25T09:54:08;11.80;99.90
14099;DHT22;7126;48.458;7.930;2024-03-25T09:56:34;11.80;99.90
14099;DHT22;7126;48.458;7.930;2024-03-25T09:59:00;11.80;99.90
14099;DHT22;7126;48.458;7.930;2024-03-25T10:01:26;11.90;99.90
14099;DHT22;7126;48.458;7.930;2024-03-25T10:03:52;11.80;99.90
14099;DHT22;7126;48.458;7.930;2024-03-25T10:06:17;11.90;99.90
14099;DHT22;7126;48.458;7.930;2024-03-25T10:08:45;11.90;99.90
14099;DHT22;7126;48.458;7.930;2024-03-25T10:11:10;12.00;99.90
14099;DHT22;7126;48.458;7.930;2024-03-25T10:13:36;12.20;99.90
14099;DHT22;7126;48.458;7.930;2024-03-25T10:16:02;12.40;99.90
14099;DHT22;7126;48.458;7.930;2024-03-25T10:18:28;12.50;99.90
14099;DHT22;7126;48.458;7.930;2024-03-25T10:20:54;12.70;99.90
14099;DHT22;7126;48.458;7.930;2024-03-25T10:23:21;12.90;99.90
14099;DHT22;7126;48.458;7.930;2024-03-25T10:25:48;13.00;99.90
14099;DHT22;7126;48.458;7.930;2024-03-25T10:28:13;13.10;99.90
14099;DHT22;7126;48.458;7.930;2024-03-25T10:30:40;13.20;99.90
14099;DHT22;7126;48.458;7.930;2024-03-25T10:33:07;13.20;99.90
14099;DHT22;7126;48.458;7.930;2024-03-25T10:35:34;13.30;99.90
14099;DHT22;7126;48.458;7.930;2024-03-25T10:38:01;13.40;99.90
14099;DHT22;7126;48.458;7.930;2024-03-25T10:40:30;13.60;99.90
14099;DHT22;7126;48.458;7.930;2024-03-25T10:45:33;13.90;99.90
14099;DHT22;7126;48.458;7.930;2024-03-25T10:48:03;14.00;99.90
14099;DHT22;7126;48.458;7.930;2024-03-25T10:50:29;14.10;99.90
14099;DHT22;7126;48.458;7.930;2024-03-25T10:52:57;14.30;99.90
14099;DHT22;7126;48.458;7.930;2024-03-25T10:55:23;14.50;99.90
14099;DHT22;7126;48.458;7.930;2024-03-25T10:57:50;14.60;99.90
14099;DHT22;7126;48.458;7.930;2024-03-25T11:00:17;14.60;99.90
14099;DHT22;7126;48.458;7.930;2024-03-25T11:02:45;14.70;99.90
14099;DHT22;7126;48.458;7.930;2024-03-25T11:05:12;14.80;99.90
14099;DHT22;7126;48.458;7.930;2024-03-25T11:07:37;14.90;99.90
14099;DHT22;7126;48.458;7.930;2024-03-25T11:10:06;14.90;99.90
14099;DHT22;7126;48.458;7.930;2024-03-25T11:12:36;14.90;99.90
14099;DHT22;7126;48.458;7.930;2024-03-25T11:15:05;15.00;99.90
14099;DHT22;7126;48.458;7.930;2024-03-25T11:17:32;15.10;99.90
14099;DHT22;7126;48.458;7.930;2024-03-25T11:20:11;15.20;99.90
14099;DHT22;7126;48.458;7.930;2024-03-25T11:22:51;15.20;99.90
14099;DHT22;7126;48.458;7.930;2024-03-25T11:25:17;15.20;99.90
14099;DHT22;7126;48.458;7.930;2024-03-25T11:27:44;15.20;99.90
14099;DHT22;7126;48.458;7.930;2024-03-25T11:30:14;15.30;99.90
14099;DHT22;7126;48.458;7.930;2024-03-25T11:32:49;15.40;99.90
14099;DHT22;7126;48.458;7.930;2024-03-25T11:35:16;15.60;99.90
14099;DHT22;7126;48.458;7.930;2024-03-25T11:37:43;15.70;99.90
14099;DHT22;7126;48.458;7.930;2024-03-25T11:40:09;15.70;99.90
14099;DHT22;7126;48.458;7.930;2024-03-25T11:42:40;15.80;99.90
14099;DHT22;7126;48.458;7.930;2024-03-25T11:45:18;16.10;99.90
14099;DHT22;7126;48.458;7.930;2024-03-25T11:47:45;16.10;99.90
14099;DHT22;7126;48.458;7.930;2024-03-25T11:50:13;16.10;97.80
14099;DHT22;7126;48.458;7.930;2024-03-25T11:52:39;16.20;99.40
14099;DHT22;7126;48.458;7.930;2024-03-25T11:55:04;16.20;96.40
14099;DHT22;7126;48.458;7.930;2024-03-25T11:57:30;16.20;98.60
14099;DHT22;7126;48.458;7.930;2024-03-25T11:59:57;16.40;96.40
14099;DHT22;7126;48.458;7.930;2024-03-25T12:02:23;16.50;98.20
14099;DHT22;7126;48.458;7.930;2024-03-25T12:04:50;16.80;99.90
14099;DHT22;7126;48.458;7.930;2024-03-25T12:07:15;16.80;99.10
14099;DHT22;7126;48.458;7.930;2024-03-25T12:09:41;16.90;99.50
14099;DHT22;7126;48.458;7.930;2024-03-25T12:12:26;17.00;99.80
14099;DHT22;7126;48.458;7.930;2024-03-25T12:14:53;17.00;96.40
14099;DHT22;7126;48.458;7.930;2024-03-25T12:17:18;17.10;98.30
14099;DHT22;7126;48.458;7.930;2024-03-25T12:19:58;17.10;95.10
14099;DHT22;7126;48.458;7.930;2024-03-25T12:22:25;17.10;93.30
14099;DHT22;7126;48.458;7.930;2024-03-25T12:24:51;17.00;92.80
14099;DHT22;7126;48.458;7.930;2024-03-25T12:27:16;17.00;93.40
14099;DHT22;7126;48.458;7.930;2024-03-25T12:29:43;17.00;92.60
14099;DHT22;7126;48.458;7.930;2024-03-25T12:32:10;17.00;93.00
14099;DHT22;7126;48.458;7.930;2024-03-25T12:34:35;17.00;91.00
14099;DHT22;7126;48.458;7.930;2024-03-25T12:37:04;17.00;89.10
14099;DHT22;7126;48.458;7.930;2024-03-25T12:39:30;17.00;89.10
14099;DHT22;7126;48.458;7.930;2024-03-25T12:41:55;16.90;90.50
14099;DHT22;7126;48.458;7.930;2024-03-25T12:44:21;17.00;90.10
14099;DHT22;7126;48.458;7.930;2024-03-25T12:46:47;17.20;91.60
14099;DHT22;7126;48.458;7.930;2024-03-25T12:49:12;17.10;86.90
14099;DHT22;7126;48.458;7.930;2024-03-25T12:51:37;17.10;88.50
14099;DHT22;7126;48.458;7.930;2024-03-25T12:54:03;17.30;91.10
14099;DHT22;7126;48.458;7.930;2024-03-25T12:56:29;17.40;87.70
14099;DHT22;7126;48.458;7.930;2024-03-25T12:58:54;17.50;88.00
14099;DHT22;7126;48.458;7.930;2024-03-25T13:01:20;17.60;90.80
14099;DHT22;7126;48.458;7.930;2024-03-25T13:03:45;17.80;92.10
14099;DHT22;7126;48.458;7.930;2024-03-25T13:06:11;18.00;92.40
14099;DHT22;7126;48.458;7.930;2024-03-25T13:08:36;18.20;90.80
14099;DHT22;7126;48.458;7.930;2024-03-25T13:11:02;18.40;88.80
14099;DHT22;7126;48.458;7.930;2024-03-25T13:13:28;18.50;92.30
14099;DHT22;7126;48.458;7.930;2024-03-25T13:15:53;18.70;90.10
14099;DHT22;7126;48.458;7.930;2024-03-25T13:18:19;18.50;86.30
14099;DHT22;7126;48.458;7.930;2024-03-25T13:20:45;18.30;86.80
14099;DHT22;7126;48.458;7.930;2024-03-25T13:23:10;18.30;83.70
14099;DHT22;7126;48.458;7.930;2024-03-25T13:25:36;18.30;81.40
14099;DHT22;7126;48.458;7.930;2024-03-25T13:28:02;18.20;84.70
14099;DHT22;7126;48.458;7.930;2024-03-25T13:30:27;18.40;88.50
14099;DHT22;7126;48.458;7.930;2024-03-25T13:32:54;18.60;90.50
14099;DHT22;7126;48.458;7.930;2024-03-25T13:35:19;18.80;83.60
14099;DHT22;7126;48.458;7.930;2024-03-25T13:37:45;18.60;84.80
14099;DHT22;7126;48.458;7.930;2024-03-25T13:40:10;18.70;90.50
14099;DHT22;7126;48.458;7.930;2024-03-25T13:42:37;18.70;83.60
14099;DHT22;7126;48.458;7.930;2024-03-25T13:45:04;18.50;86.10
14099;DHT22;7126;48.458;7.930;2024-03-25T13:47:30;18.20;84.10
14099;DHT22;7126;48.458;7.930;2024-03-25T13:50:05;18.20;86.60
14099;DHT22;7126;48.458;7.930;2024-03-25T13:52:34;18.30;84.80
14099;DHT22;7126;48.458;7.930;2024-03-25T13:54:59;18.40;89.90
14099;DHT22;7126;48.458;7.930;2024-03-25T13:57:25;18.50;89.20
14099;DHT22;7126;48.458;7.930;2024-03-25T13:59:51;18.30;85.00
14099;DHT22;7126;48.458;7.930;2024-03-25T14:02:16;18.30;85.20
14099;DHT22;7126;48.458;7.930;2024-03-25T14:04:42;18.40;85.60
14099;DHT22;7126;48.458;7.930;2024-03-25T14:07:07;18.30;87.80
14099;DHT22;7126;48.458;7.930;2024-03-25T14:09:33;18.40;89.60
14099;DHT22;7126;48.458;7.930;2024-03-25T14:11:58;18.50;87.80
14099;DHT22;7126;48.458;7.930;2024-03-25T14:14:24;18.50;87.80
14099;DHT22;7126;48.458;7.930;2024-03-25T14:16:49;18.30;82.00
14099;DHT22;7126;48.458;7.930;2024-03-25T14:19:15;18.00;82.60
14099;DHT22;7126;48.458;7.930;2024-03-25T14:21:40;17.80;84.30
14099;DHT22;7126;48.458;7.930;2024-03-25T14:24:06;17.70;83.40
14099;DHT22;7126;48.458;7.930;2024-03-25T14:26:33;17.70;81.90
14099;DHT22;7126;48.458;7.930;2024-03-25T14:28:58;17.50;83.00
14099;DHT22;7126;48.458;7.930;2024-03-25T14:31:25;17.60;85.30
14099;DHT22;7126;48.458;7.930;2024-03-25T14:33:51;17.50;84.10
14099;DHT22;7126;48.458;7.930;2024-03-25T14:36:16;17.50;87.30
14099;DHT22;7126;48.458;7.930;2024-03-25T14:38:42;17.60;85.40
14099;DHT22;7126;48.458;7.930;2024-03-25T14:41:11;17.60;82.30
14099;DHT22;7126;48.458;7.930;2024-03-25T14:43:36;17.50;82.80
14099;DHT22;7126;48.458;7.930;2024-03-25T14:46:02;17.60;83.00
14099;DHT22;7126;48.458;7.930;2024-03-25T14:48:29;17.30;81.50
14099;DHT22;7126;48.458;7.930;2024-03-25T14:50:54;17.20;83.40
14099;DHT22;7126;48.458;7.930;2024-03-25T14:53:19;17.20;85.20
14099;DHT22;7126;48.458;7.930;2024-03-25T14:55:45;17.00;82.00
14099;DHT22;7126;48.458;7.930;2024-03-25T14:58:10;16.90;80.70
14099;DHT22;7126;48.458;7.930;2024-03-25T15:00:36;16.90;83.00
14099;DHT22;7126;48.458;7.930;2024-03-25T15:03:02;16.90;83.10
14099;DHT22;7126;48.458;7.930;2024-03-25T15:05:28;17.00;84.10
14099;DHT22;7126;48.458;7.930;2024-03-25T15:07:53;17.10;83.40
14099;DHT22;7126;48.458;7.930;2024-03-25T15:10:19;17.00;83.80
14099;DHT22;7126;48.458;7.930;2024-03-25T15:12:46;16.70;82.10
14099;DHT22;7126;48.458;7.930;2024-03-25T15:15:11;16.50;81.90
14099;DHT22;7126;48.458;7.930;2024-03-25T15:17:37;16.40;82.60
14099;DHT22;7126;48.458;7.930;2024-03-25T15:20:03;16.30;83.90
14099;DHT22;7126;48.458;7.930;2024-03-25T15:22:30;16.30;85.00
14099;DHT22;7126;48.458;7.930;2024-03-25T15:24:56;16.30;82.30
14099;DHT22;7126;48.458;7.930;2024-03-25T15:27:21;16.20;83.80
14099;DHT22;7126;48.458;7.930;2024-03-25T15:29:47;16.10;83.20
14099;DHT22;7126;48.458;7.930;2024-03-25T15:32:12;16.10;83.40
14099;DHT22;7126;48.458;7.930;2024-03-25T15:34:38;16.10;83.80
14099;DHT22;7126;48.458;7.930;2024-03-25T15:37:04;16.10;82.80
14099;DHT22;7126;48.458;7.930;2024-03-25T15:39:29;16.20;85.60
14099;DHT22;7126;48.458;7.930;2024-03-25T15:41:55;16.30;83.90
14099;DHT22;7126;48.458;7.930;2024-03-25T15:44:22;16.20;83.80
14099;DHT22;7126;48.458;7.930;2024-03-25T15:46:48;16.20;83.30
14099;DHT22;7126;48.458;7.930;2024-03-25T15:49:13;16.10;84.40
14099;DHT22;7126;48.458;7.930;2024-03-25T15:51:39;16.10;85.60